Time;durP1;ratioP1;P1;durP2;ratioP2;P2;SDS_P1;SDS_P2;PMS_P1;PMS_P2;Temp;Humidity;BMP_temperature;BMP_pressure;BME280_temperature;BME280_humidity;BME280_pressure;Samples;Min_cycle;Max_cycle;Signal;HPM_P1;HPM_P2
2023/07/04 00:03:00;;;;;;;4.63;0.70;;;;;;;15.50;99.63;100606.88;6204919;28;20355;-75
2023/07/04 00:06:04;;;;;;;2.28;0.90;;;;;;;15.42;100.00;100601.31;6187608;28;20054;-74
2023/07/04 00:09:05;;;;;;;5.10;1.02;;;;;;;15.38;100.00;100598.03;6204117;28;20061;-74
2023/07/04 00:12:08;;;;;;;3.60;0.70;;;;;;;15.34;100.00;100606.34;6204192;28;20443;-74
2023/07/04 00:15:10;;;;;;;3.55;1.33;;;;;;;15.40;100.00;100611.19;6203372;28;20069;-74
2023/07/04 00:18:12;;;;;;;1.10;0.80;;;;;;;15.42;100.00;100618.03;6195130;28;20134;-76
2023/07/04 00:21:15;;;;;;;4.07;0.70;;;;;;;15.46;100.00;100616.00;6196727;28;20062;-74
2023/07/04 00:24:17;;;;;;;3.53;1.00;;;;;;;15.47;100.00;100613.25;6195600;28;20049;-74
2023/07/04 00:27:19;;;;;;;1.40;0.82;;;;;;;15.45;100.00;100620.47;6185998;28;20054;-73
2023/07/04 00:30:21;;;;;;;1.38;0.70;;;;;;;15.46;100.00;100614.22;6198193;28;20485;-75
2023/07/04 00:33:24;;;;;;;4.22;0.73;;;;;;;15.55;100.00;100620.59;6203536;28;20061;-74
2023/07/04 00:36:29;;;;;;;1.45;0.68;;;;;;;15.47;100.00;100615.03;6208253;28;20055;-78
2023/07/04 00:39:32;;;;;;;1.58;0.75;;;;;;;15.47;99.86;100615.03;6187611;28;20051;-77
2023/07/04 00:42:36;;;;;;;3.95;0.90;;;;;;;15.52;100.00;100626.13;6179229;28;20054;-75
2023/07/04 00:45:42;;;;;;;4.28;0.68;;;;;;;15.37;100.00;100614.06;6203505;28;20346;-78
2023/07/04 00:48:47;;;;;;;2.78;1.02;;;;;;;15.39;100.00;100625.38;6190421;28;20050;-76
2023/07/04 00:52:00;;;;;;;1.77;1.13;;;;;;;15.47;100.00;100630.94;6203093;28;20046;-78
2023/07/04 00:55:06;;;;;;;4.07;1.08;;;;;;;15.49;99.90;100629.03;6203348;28;20427;-74
2023/07/04 00:58:09;;;;;;;2.75;1.05;;;;;;;15.42;99.45;100630.44;6201335;28;20061;-74
2023/07/04 01:01:10;;;;;;;3.38;1.63;;;;;;;15.45;99.21;100632.88;6195208;28;20052;-74
2023/07/04 01:04:12;;;;;;;1.05;0.68;;;;;;;15.52;97.60;100635.88;6202906;28;20057;-75
2023/07/04 01:07:25;;;;;;;5.10;0.88;;;;;;;15.51;96.76;100628.91;6202677;28;20050;-75
2023/07/04 01:10:32;;;;;;;2.80;1.58;;;;;;;15.52;96.63;100623.47;6202968;28;21306;-74
2023/07/04 01:13:36;;;;;;;3.45;0.70;;;;;;;15.45;97.03;100619.63;6205984;28;20050;-77
2023/07/04 01:16:37;;;;;;;5.07;0.60;;;;;;;15.41;98.30;100626.13;6186812;28;20051;-76
2023/07/04 01:19:39;;;;;;;6.32;1.08;;;;;;;15.46;97.12;100626.59;6198790;28;20050;-77
2023/07/04 01:22:50;;;;;;;2.75;0.90;;;;;;;15.45;98.64;100636.38;6210571;28;20062;-76
2023/07/04 01:26:00;;;;;;;2.28;0.85;;;;;;;15.39;98.31;100628.00;6202557;28;20463;-78
2023/07/04 01:29:06;;;;;;;5.00;1.10;;;;;;;15.36;98.58;100629.09;6202518;28;20050;-89
2023/07/04 01:32:08;;;;;;;5.25;0.90;;;;;;;15.42;98.81;100626.00;6194139;28;20055;-76
2023/07/04 01:35:12;;;;;;;2.20;0.77;;;;;;;15.38;99.41;100645.72;6202672;28;20046;-78
2023/07/04 01:38:13;;;;;;;2.45;0.90;;;;;;;15.32;99.68;100640.88;6209173;28;20057;-76
2023/07/04 01:41:15;;;;;;;2.78;1.13;;;;;;;15.33;100.00;100647.88;6196090;28;20050;-76
2023/07/04 01:44:17;;;;;;;2.03;0.73;;;;;;;15.34;100.00;100652.19;6191597;28;20042;-75
2023/07/04 01:47:19;;;;;;;6.68;0.90;;;;;;;15.19;100.00;100651.53;6202253;28;20050;-83
2023/07/04 01:50:21;;;;;;;2.95;0.75;;;;;;;15.06;100.00;100658.69;6179603;28;20046;-77
2023/07/04 01:53:22;;;;;;;5.55;1.00;;;;;;;15.06;100.00;100658.69;6200058;28;20462;-78
2023/07/04 01:56:25;;;;;;;2.03;0.90;;;;;;;15.00;100.00;100653.88;6204095;28;20050;-82
2023/07/04 01:59:27;;;;;;;2.67;0.88;;;;;;;14.93;100.00;100658.75;6201935;28;20046;-78
2023/07/04 02:02:29;;;;;;;5.82;1.27;;;;;;;14.88;100.00;100660.03;6201649;28;20058;-79
2023/07/04 02:05:31;;;;;;;1.52;0.85;;;;;;;14.97;100.00;100662.84;6201658;28;20046;-77
2023/07/04 02:08:33;;;;;;;4.22;1.25;;;;;;;14.88;100.00;100658.25;6201560;28;20038;-76
2023/07/04 02:11:34;;;;;;;2.15;0.90;;;;;;;14.77;100.00;100650.25;6209473;28;20046;-77
2023/07/04 02:14:37;;;;;;;6.32;1.30;;;;;;;14.96;100.00;100660.34;6201717;28;20049;-74
2023/07/04 02:17:39;;;;;;;0.93;0.70;;;;;;;14.87;100.00;100655.72;6196811;28;20043;-79
2023/07/04 02:20:41;;;;;;;1.55;0.90;;;;;;;14.91;100.00;100657.19;6204707;28;20065;-77
2023/07/04 02:23:43;;;;;;;0.90;0.73;;;;;;;14.82;100.00;100661.34;6197644;28;20103;-77
2023/07/04 02:26:45;;;;;;;1.60;0.60;;;;;;;14.83;100.00;100659.53;6204484;28;20525;-78
2023/07/04 02:29:48;;;;;;;4.55;0.80;;;;;;;14.85;100.00;100666.41;6199659;28;20346;-77
2023/07/04 02:32:50;;;;;;;1.48;0.90;;;;;;;14.84;100.00;100669.16;6206635;28;20046;-78
2023/07/04 02:35:51;;;;;;;2.25;0.95;;;;;;;14.74;100.00;100666.34;6187550;28;20050;-77
2023/07/04 02:38:53;;;;;;;1.90;0.70;;;;;;;14.83;100.00;100667.47;6193367;28;20050;-75
2023/07/04 02:41:54;;;;;;;4.22;1.17;;;;;;;14.68;100.00;100661.50;6200922;28;20038;-76
2023/07/04 02:44:57;;;;;;;3.47;1.08;;;;;;;14.75;100.00;100667.19;6201188;28;20042;-77
2023/07/04 02:47:58;;;;;;;4.68;0.93;;;;;;;14.78;100.00;100665.16;6203469;28;20054;-76
2023/07/04 02:51:01;;;;;;;1.38;0.75;;;;;;;14.71;100.00;100669.19;6207465;28;20047;-75
2023/07/04 02:54:02;;;;;;;1.58;0.85;;;;;;;14.61;100.00;100681.38;6205086;28;20054;-77
2023/07/04 02:57:04;;;;;;;2.70;1.02;;;;;;;14.67;100.00;100678.28;6206011;28;20047;-77
2023/07/04 03:00:08;;;;;;;5.90;0.80;;;;;;;14.57;100.00;100688.69;6214108;28;20061;-81
2023/07/04 03:03:11;;;;;;;2.95;1.02;;;;;;;14.67;100.00;100695.03;6201546;28;20053;-75
2023/07/04 03:06:12;;;;;;;3.75;0.85;;;;;;;14.70;100.00;100692.16;6181519;28;20193;-76
2023/07/04 03:09:13;;;;;;;3.10;1.00;;;;;;;14.72;100.00;100689.41;6198697;28;20601;-78
2023/07/04 03:12:15;;;;;;;2.50;0.90;;;;;;;14.65;100.00;100675.78;6204245;28;20072;-77
2023/07/04 03:15:18;;;;;;;2.33;0.90;;;;;;;14.69;100.00;100679.88;6195688;28;20054;-76
2023/07/04 03:18:19;;;;;;;1.15;0.75;;;;;;;14.78;100.00;100666.97;6198008;28;20058;-76
2023/07/04 03:21:21;;;;;;;6.15;1.27;;;;;;;14.81;100.00;100661.47;6193592;28;20049;-77
2023/07/04 03:24:23;;;;;;;2.72;1.13;;;;;;;14.58;100.00;100679.81;6192637;28;20076;-77
2023/07/04 03:27:24;;;;;;;5.50;1.17;;;;;;;14.58;100.00;100676.31;6186164;28;20046;-77
2023/07/04 03:30:27;;;;;;;8.57;1.00;;;;;;;14.63;100.00;100667.13;6182962;28;20057;-76
2023/07/04 03:33:28;;;;;;;2.10;1.23;;;;;;;14.59;100.00;100678.03;6182962;28;20069;-76
2023/07/04 03:36:29;;;;;;;3.20;0.90;;;;;;;14.59;100.00;100692.09;6185056;28;20053;-75
2023/07/04 03:39:31;;;;;;;8.00;0.95;;;;;;;14.64;100.00;100682.03;6184676;28;20054;-76
2023/07/04 03:42:32;;;;;;;4.88;1.00;;;;;;;14.68;100.00;100687.94;6182629;28;20046;-78
2023/07/04 03:45:35;;;;;;;1.08;0.80;;;;;;;14.65;100.00;100701.38;6184721;28;20039;-76
2023/07/04 03:48:36;;;;;;;1.40;0.80;;;;;;;14.61;100.00;100700.75;6189395;28;20042;-76
2023/07/04 03:51:38;;;;;;;2.17;0.98;;;;;;;14.53;100.00;100699.59;6171065;28;20057;-76
2023/07/04 03:54:39;;;;;;;1.65;0.88;;;;;;;14.58;100.00;100710.69;6183993;28;20544;-76
2023/07/04 03:57:40;;;;;;;2.72;0.88;;;;;;;14.71;100.00;100712.34;6186528;28;20053;-76
2023/07/04 04:00:43;;;;;;;5.30;1.60;;;;;;;14.56;100.00;100720.53;6190345;28;20049;-78
2023/07/04 04:03:44;;;;;;;2.67;1.00;;;;;;;14.66;100.00;100716.28;6187677;28;20042;-76
2023/07/04 04:06:48;;;;;;;5.60;1.33;;;;;;;14.76;100.00;100716.47;6166748;28;20042;-76
2023/07/04 04:09:50;;;;;;;2.03;0.47;;;;;;;14.76;100.00;100724.41;6184677;28;20151;-76
2023/07/04 04:12:52;;;;;;;1.63;0.77;;;;;;;14.66;100.00;100726.88;6182549;28;20543;-77
2023/07/04 04:15:54;;;;;;;1.35;0.95;;;;;;;14.75;100.00;100728.88;6184171;28;20065;-76
2023/07/04 04:18:56;;;;;;;4.10;0.82;;;;;;;14.85;100.00;100727.28;6170541;28;20058;-76
2023/07/04 04:21:57;;;;;;;3.75;0.90;;;;;;;14.87;100.00;100727.16;6200404;28;20050;-76
2023/07/04 04:24:58;;;;;;;4.13;1.20;;;;;;;14.91;100.00;100723.34;6197241;28;20058;-78
2023/07/04 04:28:00;;;;;;;1.15;0.85;;;;;;;14.87;100.00;100721.88;6205356;28;20387;-78
2023/07/04 04:31:03;;;;;;;2.03;0.95;;;;;;;14.94;100.00;100723.09;6203029;28;20047;-76
2023/07/04 04:34:05;;;;;;;1.27;0.82;;;;;;;14.93;100.00;100716.13;6188365;28;20352;-76
2023/07/04 04:37:06;;;;;;;3.08;1.48;;;;;;;14.94;100.00;100725.75;6202955;28;20358;-76
2023/07/04 04:40:09;;;;;;;2.75;0.77;;;;;;;14.91;100.00;100731.28;6190234;28;20058;-77
2023/07/04 04:43:11;;;;;;;3.15;0.90;;;;;;;14.81;100.00;100735.53;6205519;28;20451;-78
2023/07/04 04:46:14;;;;;;;3.28;1.48;;;;;;;14.85;100.00;100736.97;6188547;28;20049;-76
2023/07/04 04:49:17;;;;;;;3.95;0.70;;;;;;;14.97;100.00;100729.03;6188091;28;20137;-77
2023/07/04 04:52:20;;;;;;;4.07;0.90;;;;;;;15.02;100.00;100727.84;6195162;28;20061;-76
2023/07/04 04:55:21;;;;;;;3.75;1.17;;;;;;;14.96;100.00;100739.72;6196309;28;20359;-76
2023/07/04 04:58:23;;;;;;;1.95;0.82;;;;;;;14.97;100.00;100736.13;6191060;28;20050;-74
2023/07/04 05:01:26;;;;;;;3.10;0.90;;;;;;;15.00;100.00;100735.06;6202763;28;20046;-73
2023/07/04 05:04:27;;;;;;;3.58;0.95;;;;;;;14.96;100.00;100745.00;6203254;28;20047;-75
2023/07/04 05:07:29;;;;;;;2.05;0.70;;;;;;;14.92;100.00;100748.84;6202698;28;20046;-74
2023/07/04 05:10:30;;;;;;;7.18;1.88;;;;;;;14.87;100.00;100749.16;6202343;28;20047;-79
2023/07/04 05:13:31;;;;;;;4.20;1.30;;;;;;;14.89;100.00;100744.59;6202564;28;20061;-74
2023/07/04 05:16:34;;;;;;;5.25;1.08;;;;;;;14.81;100.00;100739.03;6202994;28;20045;-74
2023/07/04 05:19:36;;;;;;;2.65;1.13;;;;;;;14.76;100.00;100740.28;6202868;28;20062;-74
2023/07/04 05:22:37;;;;;;;4.82;1.02;;;;;;;14.89;100.00;100751.69;6207071;28;20054;-73
2023/07/04 05:25:38;;;;;;;2.60;0.75;;;;;;;14.99;100.00;100750.09;6184193;28;20359;-73
2023/07/04 05:28:40;;;;;;;3.13;0.85;;;;;;;15.03;100.00;100756.00;6194369;28;20047;-74
2023/07/04 05:31:43;;;;;;;2.42;0.90;;;;;;;15.14;100.00;100742.84;6187485;28;20154;-73
2023/07/04 05:34:47;;;;;;;5.47;1.10;;;;;;;15.13;100.00;100736.72;6190902;28;20047;-73
2023/07/04 05:37:48;;;;;;;4.75;1.15;;;;;;;15.09;100.00;100743.19;6190054;28;20039;-73
2023/07/04 05:40:50;;;;;;;6.50;1.23;;;;;;;15.12;100.00;100750.88;6203622;28;20053;-73
2023/07/04 05:43:52;;;;;;;7.32;1.98;;;;;;;14.92;100.00;100768.19;6183619;28;20051;-77
2023/07/04 05:46:55;;;;;;;5.07;0.80;;;;;;;14.93;100.00;100758.47;6194238;28;20050;-74
2023/07/04 05:49:56;;;;;;;8.90;1.65;;;;;;;14.95;100.00;100767.16;6193043;28;20050;-73
2023/07/04 05:52:57;;;;;;;2.40;1.17;;;;;;;15.07;100.00;100766.25;6189352;28;20050;-74
2023/07/04 05:56:07;;;;;;;5.82;1.00;;;;;;;15.25;100.00;100764.09;6190737;28;20053;-73
2023/07/04 05:59:08;;;;;;;2.60;1.00;;;;;;;15.31;100.00;100776.06;6189476;28;20173;-73
2023/07/04 06:02:11;;;;;;;2.50;0.90;;;;;;;15.33;100.00;100759.06;6189064;28;20442;-72
2023/07/04 06:05:12;;;;;;;2.38;0.93;;;;;;;15.38;100.00;100764.88;6189456;28;20053;-73
2023/07/04 06:08:14;;;;;;;2.38;0.75;;;;;;;15.50;100.00;100759.66;6190296;28;20051;-72
2023/07/04 06:11:16;;;;;;;3.05;0.90;;;;;;;15.42;100.00;100769.00;6201547;28;20350;-73
2023/07/04 06:14:23;;;;;;;1.90;0.90;;;;;;;15.38;100.00;100769.34;6201344;28;20351;-77
2023/07/04 06:17:25;;;;;;;2.63;0.80;;;;;;;15.41;100.00;100764.66;6201222;28;20431;-75
2023/07/04 06:20:26;;;;;;;3.28;0.80;;;;;;;15.53;100.00;100770.00;6193543;28;20054;-76
2023/07/04 06:23:28;;;;;;;3.42;1.15;;;;;;;15.46;100.00;100766.97;6195621;28;20051;-77
2023/07/04 06:26:32;;;;;;;2.95;1.00;;;;;;;15.60;100.00;100768.59;6187349;28;20046;-75
2023/07/04 06:29:33;;;;;;;3.63;1.17;;;;;;;15.65;100.00;100771.78;6196355;28;20458;-76
2023/07/04 06:32:36;;;;;;;3.28;1.10;;;;;;;15.68;100.00;100772.41;6187554;28;20054;-76
2023/07/04 06:35:42;;;;;;;2.85;0.75;;;;;;;15.76;100.00;100778.94;6196444;28;20050;-79
2023/07/04 06:38:44;;;;;;;1.45;0.57;;;;;;;15.69;100.00;100791.81;6193423;28;20129;-77
2023/07/04 06:41:46;;;;;;;1.63;0.95;;;;;;;15.79;99.27;100781.34;6202118;28;20053;-75
2023/07/04 06:44:47;;;;;;;2.08;0.73;;;;;;;15.73;99.09;100787.97;6204934;28;20091;-76
2023/07/04 06:47:49;;;;;;;2.38;0.63;;;;;;;15.80;97.79;100786.53;6193065;28;20038;-77
2023/07/04 06:50:58;;;;;;;2.72;1.08;;;;;;;15.90;98.66;100798.16;6201042;28;20351;-74
2023/07/04 06:54:01;;;;;;;2.53;0.95;;;;;;;16.03;96.58;100791.91;6194779;28;20047;-74
2023/07/04 06:57:04;;;;;;;0.17;0.17;;;;;;;16.06;95.66;100789.03;6199553;28;20370;-75
2023/07/04 07:00:07;;;;;;;1.42;0.68;;;;;;;16.11;94.57;100803.63;6201183;28;20071;-76
2023/07/04 07:03:09;;;;;;;1.15;0.70;;;;;;;16.13;93.53;100784.97;6200842;28;20327;-74
2023/07/04 07:06:12;;;;;;;1.98;0.77;;;;;;;16.24;92.94;100804.41;6200969;28;20053;-76
2023/07/04 07:09:14;;;;;;;1.80;0.60;;;;;;;16.31;90.53;100806.59;6201304;28;20050;-76
2023/07/04 07:12:15;;;;;;;1.70;0.90;;;;;;;16.38;89.65;100819.25;6190459;28;20054;-76
2023/07/04 07:15:16;;;;;;;1.52;0.68;;;;;;;16.42;90.70;100818.06;6185050;28;20575;-76
2023/07/04 07:18:20;;;;;;;2.58;0.85;;;;;;;16.43;88.95;100798.53;6193565;28;20047;-76
2023/07/04 07:21:23;;;;;;;2.10;1.20;;;;;;;16.51;90.03;100819.16;6200630;28;20046;-78
2023/07/04 07:24:25;;;;;;;4.10;0.90;;;;;;;16.52;87.87;100820.84;6201122;28;20050;-79
2023/07/04 07:27:26;;;;;;;1.38;0.60;;;;;;;16.51;85.76;100819.16;6200775;28;20046;-77
2023/07/04 07:30:27;;;;;;;4.20;0.90;;;;;;;16.49;85.53;100818.44;6200971;28;20058;-83
2023/07/04 07:33:32;;;;;;;4.07;1.02;;;;;;;16.59;85.67;100824.72;6202941;28;20061;-75
2023/07/04 07:36:37;;;;;;;1.17;0.70;;;;;;;16.57;84.78;100825.81;6208256;28;20041;-78
2023/07/04 07:39:38;;;;;;;2.67;1.10;;;;;;;16.70;84.67;100821.22;6200273;28;20076;-75
2023/07/04 07:42:39;;;;;;;2.70;1.17;;;;;;;16.78;85.56;100824.19;6204821;28;20049;-74
2023/07/04 07:45:41;;;;;;;1.85;0.70;;;;;;;16.82;81.66;100814.16;6204968;28;20046;-76
2023/07/04 07:48:45;;;;;;;3.33;0.50;;;;;;;16.84;81.29;100813.06;6205114;28;20047;-76
2023/07/04 07:51:46;;;;;;;1.05;0.52;;;;;;;16.87;80.86;100814.66;6198705;28;20065;-77
2023/07/04 07:54:48;;;;;;;1.98;0.80;;;;;;;16.94;81.03;100818.50;6188769;28;20374;-75
2023/07/04 07:57:49;;;;;;;2.88;0.90;;;;;;;16.98;79.22;100836.72;6193293;28;20066;-76
2023/07/04 08:00:50;;;;;;;3.55;1.08;;;;;;;17.07;77.66;100827.19;6199892;28;20383;-74
2023/07/04 08:03:53;;;;;;;2.55;0.60;;;;;;;17.11;79.20;100823.31;6188181;28;20043;-77
2023/07/04 08:06:55;;;;;;;5.25;0.60;;;;;;;17.17;78.29;100827.31;6194582;28;20355;-73
2023/07/04 08:09:57;;;;;;;2.08;0.80;;;;;;;17.03;75.89;100828.38;6193704;28;20457;-78
2023/07/04 08:12:59;;;;;;;2.22;0.63;;;;;;;17.15;76.90;100832.72;6193225;28;20050;-75
2023/07/04 08:16:00;;;;;;;3.85;1.08;;;;;;;17.17;75.87;100830.81;6197896;28;20058;-76
2023/07/04 08:19:03;;;;;;;2.35;0.73;;;;;;;17.23;73.95;100826.81;6198784;28;20050;-78
2023/07/04 08:22:04;;;;;;;4.65;1.20;;;;;;;17.30;75.28;100832.47;6195342;28;20057;-77
2023/07/04 08:25:06;;;;;;;3.28;1.08;;;;;;;17.24;73.46;100826.69;6197567;28;20063;-77
2023/07/04 08:28:08;;;;;;;2.67;0.80;;;;;;;17.38;74.62;100841.50;6199169;28;20062;-74
2023/07/04 08:31:10;;;;;;;1.98;0.68;;;;;;;17.41;74.12;100838.63;6195598;28;20054;-76
2023/07/04 08:34:13;;;;;;;3.45;1.08;;;;;;;17.45;74.09;100847.19;6194745;28;20050;-77
2023/07/04 08:37:15;;;;;;;3.95;0.80;;;;;;;17.41;71.42;100848.41;6211675;28;20132;-75
2023/07/04 08:40:18;;;;;;;1.77;0.82;;;;;;;17.28;71.12;100848.53;6200822;28;20133;-74
2023/07/04 08:43:25;;;;;;;3.08;0.75;;;;;;;17.36;68.79;100846.13;6184801;28;20439;-77
2023/07/04 08:46:33;;;;;;;7.45;1.02;;;;;;;17.49;70.32;100841.50;6182515;28;20459;-79
2023/07/04 08:49:41;;;;;;;1.55;0.70;;;;;;;17.56;67.00;100849.81;6194889;28;20051;-72
2023/07/04 08:52:48;;;;;;;3.83;0.85;;;;;;;17.55;66.01;100853.44;6195126;28;20051;-74
2023/07/04 08:55:59;;;;;;;2.88;0.65;;;;;;;17.55;65.59;100861.41;6208101;28;20052;-73
2023/07/04 08:59:11;;;;;;;0.73;0.40;;;;;;;17.59;65.22;100857.56;6188698;28;20042;-72
2023/07/04 09:02:40;;;;;;;1.90;0.80;;;;;;;17.59;65.35;100865.53;6188389;28;20358;-73
2023/07/04 09:05:53;;;;;;;3.17;0.75;;;;;;;17.65;64.66;100858.88;6187004;28;20355;-72
2023/07/04 09:09:04;;;;;;;3.65;0.90;;;;;;;17.65;63.10;100869.50;6205285;28;20041;-72
2023/07/04 09:12:07;;;;;;;1.08;0.60;;;;;;;17.64;61.70;100865.16;6185894;28;20050;-74
2023/07/04 09:15:17;;;;;;;2.47;0.50;;;;;;;17.73;59.57;100870.59;6200451;28;20137;-71
2023/07/04 09:18:28;;;;;;;7.57;0.80;;;;;;;17.85;60.68;100884.72;6199785;28;20057;-72
2023/07/04 09:21:32;;;;;;;2.17;0.70;;;;;;;17.92;60.62;100867.28;6186216;28;20652;-71
2023/07/04 09:24:33;;;;;;;1.27;0.30;;;;;;;17.96;61.14;100874.03;6189067;28;20061;-73
2023/07/04 09:27:35;;;;;;;1.42;0.80;;;;;;;17.98;61.51;100876.53;6210714;28;20054;-74
2023/07/04 09:30:37;;;;;;;3.75;0.90;;;;;;;18.04;62.21;100883.19;6192680;28;21573;-73
2023/07/04 09:33:40;;;;;;;4.35;1.10;;;;;;;17.98;61.31;100873.88;6187892;28;20050;-73
2023/07/04 09:36:43;;;;;;;1.75;0.80;;;;;;;18.07;59.28;100880.25;6193347;28;20042;-72
2023/07/04 09:39:50;;;;;;;3.22;1.30;;;;;;;18.08;59.63;100882.81;6188322;28;20046;-72
2023/07/04 09:42:51;;;;;;;3.05;0.82;;;;;;;18.12;59.31;100884.25;6181137;28;20350;-72
2023/07/04 09:46:09;;;;;;;3.53;1.13;;;;;;;18.16;58.96;100895.47;6178216;28;20054;-74
2023/07/04 09:49:23;;;;;;;4.32;0.85;;;;;;;18.29;60.63;100882.84;6201279;28;20046;-74
2023/07/04 09:52:26;;;;;;;1.17;0.52;;;;;;;18.32;56.71;100885.25;6201822;28;20054;-82
2023/07/04 09:55:27;;;;;;;2.08;0.80;;;;;;;18.40;54.90;100881.94;6203419;28;20177;-76
2023/07/04 09:58:29;;;;;;;2.40;0.80;;;;;;;18.52;56.05;100888.88;6199736;28;20050;-73
2023/07/04 10:01:31;;;;;;;1.95;0.93;;;;;;;18.60;55.78;100890.91;6201450;28;20105;-75
2023/07/04 10:04:35;;;;;;;6.57;1.08;;;;;;;18.62;55.60;100902.25;6202003;28;20054;-77
2023/07/04 10:07:38;;;;;;;1.92;0.85;;;;;;;18.63;54.88;100885.31;6199051;28;20061;-81
2023/07/04 10:10:49;;;;;;;1.60;0.55;;;;;;;18.64;54.75;100879.88;6177782;28;20043;-77
2023/07/04 10:13:59;;;;;;;3.70;0.65;;;;;;;18.65;54.46;100884.22;6201656;28;20439;-77
2023/07/04 10:17:11;;;;;;;2.67;0.90;;;;;;;18.72;56.05;100881.91;6193857;28;20054;-74
2023/07/04 10:20:14;;;;;;;3.90;0.93;;;;;;;18.73;56.41;100880.94;6188998;28;20134;-73
2023/07/04 10:23:16;;;;;;;1.60;0.80;;;;;;;18.70;55.84;100889.16;6193635;28;20347;-80
2023/07/04 10:26:18;;;;;;;1.13;0.60;;;;;;;18.89;57.34;100893.75;6186649;28;20050;-74
2023/07/04 10:29:25;;;;;;;3.28;0.85;;;;;;;18.85;55.35;100884.34;6191600;28;20046;-76
2023/07/04 10:32:27;;;;;;;4.40;0.70;;;;;;;18.72;54.46;100874.78;6186339;28;20051;-76
2023/07/04 10:35:31;;;;;;;5.82;1.17;;;;;;;18.80;56.21;100887.41;6191662;28;20051;-74
2023/07/04 10:38:44;;;;;;;4.78;0.98;;;;;;;18.87;55.41;100879.75;6184426;28;20053;-75
2023/07/04 10:41:54;;;;;;;3.67;1.10;;;;;;;18.97;56.01;100875.31;6188230;28;20047;-75
2023/07/04 10:44:57;;;;;;;7.35;0.98;;;;;;;18.98;55.36;100879.66;6185108;28;20072;-74
2023/07/04 10:48:02;;;;;;;5.75;1.33;;;;;;;18.91;53.78;100887.34;6192568;28;20042;-79
2023/07/04 10:51:08;;;;;;;2.60;0.90;;;;;;;19.00;54.93;100888.38;6188363;28;20047;-74
2023/07/04 10:54:13;;;;;;;5.22;1.48;;;;;;;19.08;54.65;100893.03;6190011;28;20050;-74
2023/07/04 10:57:24;;;;;;;5.32;0.88;;;;;;;18.93;54.45;100884.53;6180597;28;20047;-75
2023/07/04 11:00:31;;;;;;;3.00;0.85;;;;;;;18.71;54.08;100878.41;6188656;28;20050;-77
2023/07/04 11:03:43;;;;;;;4.25;1.00;;;;;;;18.75;56.13;100884.28;6182301;28;20047;-74
2023/07/04 11:06:49;;;;;;;1.65;0.70;;;;;;;18.66;57.16;100891.22;6180237;28;20057;-74
2023/07/04 11:09:55;;;;;;;1.40;0.73;;;;;;;18.57;57.20;100901.81;6186419;28;20061;-74
2023/07/04 11:12:58;;;;;;;3.65;1.00;;;;;;;18.41;58.14;100912.91;6191598;28;20061;-74
2023/07/04 11:16:04;;;;;;;4.22;1.10;;;;;;;18.38;59.95;100914.00;6192812;28;20046;-74
2023/07/04 11:19:15;;;;;;;7.53;1.35;;;;;;;18.34;58.65;100914.38;6197180;28;20050;-74
2023/07/04 11:22:17;;;;;;;2.80;1.33;;;;;;;18.40;60.98;100927.19;6197172;28;20328;-75
2023/07/04 11:26:04;;;;;;;9.93;1.92;;;;;;;18.33;60.72;100923.34;6197586;28;20133;-78
2023/07/04 11:29:09;;;;;;;5.97;1.13;;;;;;;18.33;62.05;100936.66;6198889;28;20521;-80
2023/07/04 11:32:17;;;;;;;3.80;1.42;;;;;;;18.29;62.63;100935.19;6206596;28;20359;-73
2023/07/04 11:35:22;;;;;;;5.65;1.27;;;;;;;18.12;65.86;100965.84;6197085;28;20054;-73
2023/07/04 11:38:23;;;;;;;3.92;1.92;;;;;;;17.94;67.14;100968.19;6188893;28;20046;-80
2023/07/04 11:41:32;;;;;;;1.77;0.85;;;;;;;17.77;66.67;100968.72;6201875;28;20051;-78
2023/07/04 11:44:52;;;;;;;3.28;1.08;;;;;;;17.64;66.11;100974.97;6197031;28;20042;-77
2023/07/04 11:48:00;;;;;;;2.60;1.00;;;;;;;17.57;69.28;100976.41;6190943;28;20042;-74
2023/07/04 11:51:05;;;;;;;7.07;1.33;;;;;;;17.47;71.77;100981.59;6188668;28;20061;-79
2023/07/04 11:54:07;;;;;;;6.40;1.42;;;;;;;17.38;74.84;100984.13;6192838;28;20061;-80
2023/07/04 11:57:10;;;;;;;2.45;1.50;;;;;;;17.31;74.31;100980.28;6203326;28;20050;-73
2023/07/04 12:00:23;;;;;;;4.82;1.60;;;;;;;17.28;74.11;100983.16;6196347;28;20158;-75
2023/07/04 12:03:48;;;;;;;5.88;1.25;;;;;;;17.34;73.24;100985.34;6197079;28;20057;-75
2023/07/04 12:07:02;;;;;;;4.32;1.25;;;;;;;17.33;71.90;100981.00;6204126;28;20050;-76
2023/07/04 12:10:10;;;;;;;2.55;1.40;;;;;;;17.30;71.09;100989.19;6204551;28;20046;-76
2023/07/04 12:13:19;;;;;;;6.13;1.33;;;;;;;17.45;71.91;100990.69;6197591;28;20470;-73
2023/07/04 12:16:23;;;;;;;7.32;1.38;;;;;;;17.43;70.76;100990.78;6188528;28;20061;-74
2023/07/04 12:19:25;;;;;;;3.30;0.93;;;;;;;17.42;70.29;100981.13;6203334;28;20066;-74
2023/07/04 12:22:27;;;;;;;5.63;1.90;;;;;;;17.53;70.21;100982.94;6201851;28;20053;-73
2023/07/04 12:25:33;;;;;;;2.88;1.23;;;;;;;17.63;69.70;100985.72;6194822;28;20050;-73
2023/07/04 12:28:37;;;;;;;3.53;1.20;;;;;;;17.72;69.72;100979.69;6206889;28;20057;-73
2023/07/04 12:31:38;;;;;;;7.70;2.05;;;;;;;17.97;69.99;100974.09;6210606;28;20077;-73
2023/07/04 12:34:40;;;;;;;2.35;1.20;;;;;;;18.34;68.78;100973.75;6200718;28;20053;-73
2023/07/04 12:37:47;;;;;;;4.07;1.13;;;;;;;18.32;64.92;100982.84;6197347;28;20038;-73
2023/07/04 12:40:49;;;;;;;2.22;1.00;;;;;;;18.41;65.66;100990.09;6199922;28;20423;-80
2023/07/04 12:43:55;;;;;;;4.43;1.15;;;;;;;18.34;67.82;100983.56;6196121;28;20049;-77
2023/07/04 12:46:57;;;;;;;1.85;1.10;;;;;;;18.15;64.78;100993.03;6210351;28;20050;-72
2023/07/04 12:50:01;;;;;;;5.93;1.30;;;;;;;18.09;64.94;100982.06;6198925;28;20057;-73
2023/07/04 12:53:03;;;;;;;2.90;1.33;;;;;;;18.03;66.54;100986.06;6195726;28;20373;-72
2023/07/04 12:56:07;;;;;;;2.60;0.88;;;;;;;17.92;68.01;100994.91;6201163;28;20057;-73
2023/07/04 12:59:32;;;;;;;6.35;1.00;;;;;;;17.96;68.80;100991.03;6196805;28;20042;-72
2023/07/04 13:02:35;;;;;;;6.45;1.02;;;;;;;17.99;70.18;100995.28;6203017;28;20056;-73
2023/07/04 13:05:40;;;;;;;6.00;1.13;;;;;;;17.96;69.18;100999.00;6196164;28;20467;-72
2023/07/04 13:08:46;;;;;;;5.47;1.17;;;;;;;17.90;69.39;100996.84;6213285;28;20069;-72
2023/07/04 13:11:48;;;;;;;1.63;1.23;;;;;;;17.94;69.84;100998.31;6189340;28;20062;-73
2023/07/04 13:14:50;;;;;;;4.75;1.55;;;;;;;18.00;70.46;100989.81;6193862;28;20049;-72
2023/07/04 13:17:54;;;;;;;7.43;1.27;;;;;;;17.95;69.80;100993.81;6190171;28;20051;-73
2023/07/04 13:20:56;;;;;;;4.43;1.58;;;;;;;17.99;71.07;100984.63;6195107;28;20042;-73
2023/07/04 13:23:58;;;;;;;4.47;1.50;;;;;;;18.20;70.13;100990.00;6191398;28;20440;-72
2023/07/04 13:27:16;;;;;;;2.15;1.17;;;;;;;18.27;68.63;100993.03;6187795;28;20359;-73
2023/07/04 13:30:27;;;;;;;5.93;1.30;;;;;;;18.28;69.49;101000.03;6191987;28;20050;-72
2023/07/04 13:33:31;;;;;;;3.13;1.00;;;;;;;18.16;68.06;100996.53;6188847;28;20059;-73
2023/07/04 13:36:36;;;;;;;5.75;1.27;;;;;;;18.07;68.32;101000.78;6192537;28;20058;-74
2023/07/04 13:39:38;;;;;;;6.95;1.50;;;;;;;17.96;69.15;101007.00;6185905;28;20073;-73
2023/07/04 13:42:39;;;;;;;3.92;1.13;;;;;;;17.98;71.19;101012.16;6188896;28;20058;-74
2023/07/04 13:45:42;;;;;;;7.68;1.73;;;;;;;17.91;69.34;101016.31;6189782;28;20057;-74
2023/07/04 13:48:44;;;;;;;5.18;1.38;;;;;;;17.88;68.49;101019.19;6189530;28;20054;-72
2023/07/04 13:51:46;;;;;;;6.90;1.27;;;;;;;17.83;70.23;101016.91;6184627;28;20551;-72
2023/07/04 13:54:47;;;;;;;3.15;0.95;;;;;;;17.85;69.50;101019.44;6187800;28;20047;-73
2023/07/04 13:57:48;;;;;;;4.13;1.48;;;;;;;17.93;68.55;101019.69;6186517;28;20053;-73
2023/07/04 14:00:51;;;;;;;1.25;1.00;;;;;;;17.81;69.04;101016.19;6191880;28;20051;-77
2023/07/04 14:03:53;;;;;;;4.45;1.20;;;;;;;17.85;69.90;101017.66;6189451;28;20061;-72
2023/07/04 14:06:54;;;;;;;6.18;2.15;;;;;;;17.88;70.56;101029.84;6196972;28;20061;-73
2023/07/04 14:09:55;;;;;;;6.18;1.17;;;;;;;17.92;71.24;101012.66;6193759;28;20042;-73
2023/07/04 14:12:57;;;;;;;10.85;1.63;;;;;;;17.88;69.01;101012.06;6192677;28;20046;-73